createdAt,value
2019-01-04T00:01:29.160Z,-0.70
2019-01-04T00:04:03.688Z,-0.59
2019-01-04T00:06:35.328Z,-1.12
2019-01-04T00:09:09.143Z,-1.09
2019-01-04T00:11:40.787Z,-0.92
2019-01-04T00:14:13.002Z,-0.79
2019-01-04T00:16:45.466Z,-0.97
2019-01-04T00:19:19.498Z,-0.47
2019-01-04T00:21:51.252Z,-0.96
2019-01-04T00:24:24.835Z,-0.82
2019-01-04T00:26:57.623Z,-0.81
2019-01-04T00:29:31.018Z,-0.76
2019-01-04T00:32:02.582Z,-0.87
2019-01-04T00:34:34.201Z,-1.10
2019-01-04T00:37:05.758Z,-1.08
2019-01-04T00:39:39.590Z,-1.14
2019-01-04T00:42:11.240Z,-1.11
2019-01-04T00:44:42.833Z,-1.12
2019-01-04T00:47:14.453Z,-1.35
2019-01-04T00:49:46.029Z,-1.19
2019-01-04T00:52:17.600Z,-1.35
2019-01-04T00:54:49.276Z,-1.09
2019-01-04T00:58:09.279Z,-1.18
2019-01-04T01:01:46.353Z,-1.25
2019-01-04T01:05:21.056Z,-1.35
2019-01-04T01:08:51.664Z,-1.77
2019-01-04T01:12:16.330Z,-1.56
2019-01-04T01:15:34.263Z,-1.59
2019-01-04T01:18:44.610Z,-1.68
2019-01-04T01:22:11.280Z,-1.86
2019-01-04T01:26:03.080Z,-1.92
2019-01-04T01:29:31.781Z,-1.97
2019-01-04T01:33:05.192Z,-2.22
2019-01-04T01:36:28.470Z,-1.49
2019-01-04T01:39:59.575Z,-2.23
2019-01-04T01:43:35.985Z,-1.98
2019-01-04T01:46:53.973Z,-2.01
2019-01-04T01:50:38.566Z,-1.74
2019-01-04T01:53:10.406Z,-2.29
2019-01-04T01:55:41.981Z,-2.35
2019-01-04T01:58:13.972Z,-1.94
2019-01-04T02:00:45.704Z,-1.94
2019-01-04T02:03:17.385Z,-1.89
2019-01-04T02:05:49.053Z,-2.24
2019-01-04T02:08:20.667Z,-1.90
2019-01-04T02:10:52.307Z,-1.84
2019-01-04T02:13:23.865Z,-2.04
2019-01-04T02:15:55.433Z,-1.97
2019-01-04T02:18:27.030Z,-1.81
2019-01-04T02:20:58.598Z,-1.86
2019-01-04T02:23:30.183Z,-2.18
2019-01-04T02:26:01.831Z,-2.01
2019-01-04T02:28:33.407Z,-2.31
2019-01-04T02:31:05.124Z,-2.23
2019-01-04T02:33:36.779Z,-1.64
2019-01-04T02:36:08.516Z,-2.28
2019-01-04T02:38:40.113Z,-2.40
2019-01-04T02:41:11.699Z,-1.93
2019-01-04T02:43:43.373Z,-2.13
2019-01-04T02:46:14.955Z,-2.05
2019-01-04T02:48:46.599Z,-2.23
2019-01-04T02:51:18.184Z,-2.03
2019-01-04T02:53:49.874Z,-1.49
2019-01-04T02:56:21.511Z,-0.98
2019-01-04T02:58:53.112Z,-1.11
2019-01-04T03:01:24.668Z,-1.69
2019-01-04T03:03:56.256Z,-1.62
2019-01-04T03:06:27.941Z,-1.65
2019-01-04T03:08:59.523Z,-1.98
2019-01-04T03:11:31.112Z,-1.72
2019-01-04T03:14:02.748Z,-1.12
2019-01-04T03:16:34.401Z,-1.45
2019-01-04T03:19:05.993Z,-1.41
2019-01-04T03:21:37.717Z,-1.57
2019-01-04T03:24:09.348Z,-0.57
2019-01-04T03:26:41.080Z,-0.68
2019-01-04T03:29:12.672Z,-1.29
2019-01-04T03:31:44.258Z,-1.10
2019-01-04T03:34:15.827Z,-0.81
2019-01-04T03:36:47.461Z,-1.18
2019-01-04T03:39:19.061Z,-0.53
2019-01-04T03:41:50.619Z,-0.91
2019-01-04T03:44:22.223Z,-0.65
2019-01-04T03:46:53.839Z,-0.56
2019-01-04T03:49:25.386Z,-0.75
2019-01-04T03:51:57.007Z,-0.70
2019-01-04T03:54:28.653Z,-0.84
2019-01-04T03:57:00.336Z,-0.26
2019-01-04T03:59:31.946Z,-0.19
2019-01-04T04:02:03.579Z,-0.36
2019-01-04T04:04:35.356Z,-0.59
2019-01-04T04:07:07.029Z,-0.64
2019-01-04T04:09:38.647Z,-0.77
2019-01-04T04:12:10.340Z,-0.36
2019-01-04T04:14:42.032Z,-0.67
2019-01-04T04:17:13.616Z,-0.44
2019-01-04T04:19:45.195Z,-0.51
2019-01-04T04:22:17.726Z,-0.25
2019-01-04T04:24:49.339Z,-1.16
2019-01-04T04:27:21.093Z,-1.22
2019-01-04T04:29:52.638Z,-0.66
2019-01-04T04:32:24.256Z,-1.15
2019-01-04T04:34:55.859Z,-1.34
2019-01-04T04:37:27.448Z,-0.53
2019-01-04T04:39:59.027Z,-0.72
2019-01-04T04:42:30.629Z,-0.50
2019-01-04T04:45:02.190Z,-0.87
2019-01-04T04:47:33.886Z,-0.45
2019-01-04T04:50:05.511Z,-0.57
2019-01-04T04:52:37.184Z,-0.08
2019-01-04T04:55:08.811Z,-0.28
2019-01-04T04:57:40.575Z,-0.84
2019-01-04T05:00:12.245Z,-0.46
2019-01-04T05:02:44.076Z,-0.85
2019-01-04T05:05:15.696Z,-0.57
2019-01-04T05:07:47.440Z,-0.65
2019-01-04T05:10:19.066Z,-0.57
2019-01-04T05:12:50.699Z,-0.84
2019-01-04T05:15:22.341Z,-0.01
2019-01-04T05:17:54.009Z,0.15
2019-01-04T05:20:25.648Z,-0.70
2019-01-04T05:22:57.237Z,-0.26
2019-01-04T05:25:28.825Z,-0.57
2019-01-04T05:28:00.454Z,-0.60
2019-01-04T05:30:32.116Z,-0.46
2019-01-04T05:33:03.716Z,-0.44
2019-01-04T05:35:35.327Z,-0.26
2019-01-04T05:38:07.003Z,-0.13
2019-01-04T05:40:38.649Z,-0.23
2019-01-04T05:43:10.300Z,0.04
2019-01-04T05:45:41.976Z,-0.29
2019-01-04T05:48:13.636Z,-0.23
2019-01-04T05:50:45.237Z,-0.46
2019-01-04T05:53:16.950Z,-0.16
2019-01-04T05:55:48.572Z,-0.12
2019-01-04T05:58:20.268Z,-0.10
2019-01-04T06:00:51.874Z,-0.42
2019-01-04T06:03:23.468Z,-0.70
2019-01-04T06:05:55.054Z,-0.47
2019-01-04T06:08:26.634Z,-0.85
2019-01-04T06:10:58.257Z,-0.44
2019-01-04T06:13:29.895Z,-0.41
2019-01-04T06:16:01.511Z,-0.89
2019-01-04T06:18:33.161Z,-0.95
2019-01-04T06:21:04.907Z,-1.06
2019-01-04T06:23:36.580Z,-0.63
2019-01-04T06:26:08.235Z,-0.93
2019-01-04T06:28:39.855Z,-0.46
2019-01-04T06:31:11.525Z,-0.76
2019-01-04T06:33:43.241Z,-0.77
2019-01-04T06:36:14.833Z,-0.72
2019-01-04T06:38:46.544Z,-0.73
2019-01-04T06:41:18.281Z,-0.70
2019-01-04T06:43:49.955Z,-1.10
2019-01-04T06:46:21.525Z,-0.58
2019-01-04T06:48:53.213Z,-0.79
2019-01-04T06:51:27.722Z,-0.84
2019-01-04T06:53:58.196Z,-0.77
2019-01-04T06:56:29.810Z,-1.04
2019-01-04T06:59:01.415Z,-0.76
2019-01-04T07:01:33.024Z,-0.85
2019-01-04T07:04:04.756Z,-0.96
2019-01-04T07:06:36.383Z,-0.83
2019-01-04T07:09:08.169Z,-1.05
2019-01-04T07:11:39.878Z,-0.80
2019-01-04T07:14:11.447Z,-1.00
2019-01-04T07:16:43.148Z,-0.88
2019-01-04T07:19:14.878Z,-1.15
2019-01-04T07:21:46.528Z,-1.01
2019-01-04T07:24:18.168Z,-1.05
2019-01-04T07:26:49.807Z,-1.10
2019-01-04T07:29:21.551Z,-1.21
2019-01-04T07:31:53.246Z,-1.13
2019-01-04T07:34:25.037Z,-0.36
2019-01-04T07:36:56.685Z,0.01
2019-01-04T07:39:28.269Z,0.04
2019-01-04T07:41:59.855Z,0.64
2019-01-04T07:44:31.447Z,0.89
2019-01-04T07:47:03.070Z,1.23
2019-01-04T07:49:34.691Z,1.14
2019-01-04T07:52:06.241Z,0.95
2019-01-04T07:54:38.087Z,0.81
2019-01-04T07:57:09.802Z,0.82
2019-01-04T07:59:41.455Z,0.89
2019-01-04T08:02:48.133Z,0.98
2019-01-04T08:05:25.013Z,0.99
2019-01-04T08:07:56.742Z,0.94
2019-01-04T08:10:28.332Z,0.54
2019-01-04T08:12:59.960Z,0.41
2019-01-04T08:15:31.605Z,0.47
2019-01-04T08:18:03.211Z,0.57
2019-01-04T08:20:34.890Z,0.66
2019-01-04T08:23:06.507Z,0.60
2019-01-04T08:25:38.223Z,0.60
2019-01-04T08:28:09.864Z,0.20
2019-01-04T08:30:41.428Z,0.20
2019-01-04T08:33:13.012Z,0.55
2019-01-04T08:35:44.597Z,0.16
2019-01-04T08:38:17.242Z,0.37
2019-01-04T08:40:48.843Z,0.47
2019-01-04T08:43:20.432Z,0.57
2019-01-04T08:45:53.102Z,0.48
2019-01-04T08:48:24.808Z,0.68
2019-01-04T08:50:56.451Z,0.40
2019-01-04T08:54:00.470Z,0.52
2019-01-04T08:56:35.755Z,0.55
2019-01-04T08:59:07.436Z,0.49
2019-01-04T09:01:39.119Z,0.50
2019-01-04T09:04:10.726Z,0.38
2019-01-04T09:06:42.299Z,0.72
2019-01-04T09:09:14.113Z,0.57
2019-01-04T09:11:45.727Z,0.87
2019-01-04T09:14:18.405Z,0.37
2019-01-04T09:16:49.978Z,0.33
2019-01-04T09:19:21.548Z,0.20
2019-01-04T09:21:53.121Z,0.29
2019-01-04T09:24:24.673Z,0.59
2019-01-04T09:26:56.267Z,0.50
2019-01-04T09:29:27.871Z,0.47
2019-01-04T09:31:59.451Z,0.38
2019-01-04T09:34:31.049Z,0.48
2019-01-04T09:37:02.778Z,0.76
2019-01-04T09:39:34.377Z,0.46
2019-01-04T09:42:15.513Z,0.56
2019-01-04T09:44:47.931Z,0.42
2019-01-04T09:47:19.505Z,0.39
2019-01-04T09:49:51.209Z,0.28
2019-01-04T09:52:22.795Z,-0.07
2019-01-04T09:54:54.705Z,-0.12
2019-01-04T09:57:26.431Z,-0.25
2019-01-04T09:59:59.059Z,-0.20
2019-01-04T10:02:31.643Z,-0.34
2019-01-04T10:05:03.240Z,-0.24
2019-01-04T10:07:35.008Z,-0.14
2019-01-04T10:10:09.208Z,-0.23
2019-01-04T10:12:40.945Z,-0.37
2019-01-04T10:15:16.167Z,-0.26
2019-01-04T10:17:47.826Z,-0.20
2019-01-04T10:20:19.466Z,-0.46
2019-01-04T10:22:51.196Z,-0.46
2019-01-04T10:25:23.038Z,-0.42
2019-01-04T10:27:55.709Z,-0.45
2019-01-04T10:30:28.919Z,-0.26
2019-01-04T10:33:00.487Z,-0.07
2019-01-04T10:35:32.118Z,-0.12
2019-01-04T10:38:03.711Z,-0.06
2019-01-04T10:40:35.319Z,-0.11
2019-01-04T10:43:07.003Z,-0.02
2019-01-04T10:45:38.605Z,0.04
2019-01-04T10:48:10.290Z,0.05
2019-01-04T10:50:41.877Z,0.10
2019-01-04T10:53:13.484Z,0.39
2019-01-04T10:55:45.056Z,0.38
2019-01-04T10:58:16.639Z,0.25
2019-01-04T11:00:48.263Z,0.32
2019-01-04T11:03:19.907Z,0.33
2019-01-04T11:05:51.498Z,0.37
2019-01-04T11:08:23.145Z,0.35
2019-01-04T11:10:54.708Z,0.24
2019-01-04T11:13:26.373Z,0.27
2019-01-04T11:15:57.966Z,0.43
2019-01-04T11:18:29.608Z,1.13
2019-01-04T11:21:04.837Z,0.65
2019-01-04T11:24:40.188Z,0.40
2019-01-04T11:27:45.218Z,0.48
2019-01-04T11:30:50.862Z,0.53
2019-01-04T11:34:38.253Z,0.62
2019-01-04T11:37:54.494Z,0.53
2019-01-04T11:41:08.479Z,0.74
2019-01-04T11:44:46.040Z,0.77
2019-01-04T11:48:03.016Z,0.79
2019-01-04T11:51:20.213Z,0.89
2019-01-04T11:53:51.768Z,0.73
2019-01-04T11:56:23.420Z,0.76
2019-01-04T11:58:55.062Z,0.78
2019-01-04T12:01:26.896Z,0.84
2019-01-04T12:04:02.197Z,0.86
2019-01-04T12:06:34.097Z,0.84
2019-01-04T12:09:08.525Z,0.88
2019-01-04T12:11:40.172Z,0.96
2019-01-04T12:14:11.765Z,0.80
2019-01-04T12:16:43.322Z,0.99
2019-01-04T12:19:14.977Z,0.96
2019-01-04T12:21:46.586Z,1.03
2019-01-04T12:24:18.201Z,1.12
2019-01-04T12:26:49.788Z,0.99
2019-01-04T12:29:21.381Z,0.96
2019-01-04T12:31:53.081Z,0.97
2019-01-04T12:34:25.992Z,1.04
2019-01-04T12:36:57.592Z,0.89
2019-01-04T12:39:29.170Z,0.94
2019-01-04T12:42:00.856Z,0.95
2019-01-04T12:44:32.554Z,1.04
2019-01-04T12:47:04.329Z,1.10
2019-01-04T12:49:36.032Z,0.97
2019-01-04T12:52:09.290Z,1.06
2019-01-04T12:54:40.957Z,1.20
2019-01-04T12:57:12.574Z,1.16
2019-01-04T12:59:44.331Z,1.10
2019-01-04T13:02:15.926Z,1.05
2019-01-04T13:04:47.535Z,1.02
2019-01-04T13:07:19.274Z,1.16
2019-01-04T13:09:50.897Z,1.23
2019-01-04T13:12:24.423Z,1.22
2019-01-04T13:14:56.269Z,1.16
2019-01-04T13:17:28.579Z,1.08
2019-01-04T13:20:01.226Z,1.34
2019-01-04T13:22:34.094Z,1.26
2019-01-04T13:25:07.985Z,1.22
2019-01-04T13:27:39.833Z,1.43
2019-01-04T13:30:11.722Z,1.22
2019-01-04T13:32:43.608Z,1.21
2019-01-04T13:35:15.231Z,1.44
2019-01-04T13:37:46.876Z,1.27
2019-01-04T13:40:18.626Z,1.24
2019-01-04T13:42:50.574Z,1.26
2019-01-04T13:45:22.291Z,1.25
2019-01-04T13:47:53.901Z,1.23
2019-01-04T13:50:25.498Z,1.24
2019-01-04T13:52:57.159Z,1.22
2019-01-04T13:55:28.743Z,1.25
2019-01-04T13:58:01.312Z,1.19
2019-01-04T14:00:34.031Z,1.23
2019-01-04T14:03:05.758Z,1.39
2019-01-04T14:05:37.502Z,1.23
2019-01-04T14:08:09.249Z,1.20
2019-01-04T14:10:40.872Z,1.21
2019-01-04T14:13:12.586Z,1.32
2019-01-04T14:15:44.236Z,1.35
2019-01-04T14:18:15.856Z,1.36
2019-01-04T14:20:47.443Z,1.28
2019-01-04T14:23:19.033Z,1.25
2019-01-04T14:25:50.698Z,1.55
2019-01-04T14:28:22.388Z,1.40
2019-01-04T14:30:54.117Z,1.31
2019-01-04T14:33:25.722Z,1.25
2019-01-04T14:35:57.356Z,1.38
2019-01-04T14:38:29.169Z,1.33
2019-01-04T14:41:00.721Z,1.28
2019-01-04T14:43:32.815Z,1.49
2019-01-04T14:46:04.425Z,1.77
2019-01-04T14:48:36.129Z,2.18
2019-01-04T14:51:07.911Z,2.21
2019-01-04T14:53:39.479Z,1.57
2019-01-04T14:56:11.358Z,1.39
2019-01-04T14:58:42.993Z,1.41
2019-01-04T15:01:14.734Z,1.28
2019-01-04T15:03:46.458Z,1.40
2019-01-04T15:06:18.126Z,1.40
2019-01-04T15:08:49.864Z,1.32
2019-01-04T15:11:21.475Z,1.43
2019-01-04T15:13:53.077Z,1.52
2019-01-04T15:16:24.826Z,1.51
2019-01-04T15:18:56.605Z,1.45
2019-01-04T15:21:28.204Z,1.64
2019-01-04T15:23:59.846Z,1.40
2019-01-04T15:26:31.521Z,1.66
2019-01-04T15:29:03.131Z,1.49
2019-01-04T15:31:34.738Z,1.47
2019-01-04T15:34:06.395Z,1.40
2019-01-04T15:36:38.234Z,1.32
2019-01-04T15:39:10.243Z,1.38
2019-01-04T15:41:41.955Z,1.39
2019-01-04T15:44:15.957Z,1.43
2019-01-04T15:46:47.655Z,1.62
2019-01-04T15:49:19.338Z,1.52
2019-01-04T15:51:51.101Z,1.39
2019-01-04T15:54:22.700Z,1.45
2019-01-04T15:56:54.278Z,1.49
2019-01-04T15:59:25.969Z,1.55
2019-01-04T16:01:57.700Z,1.54
2019-01-04T16:04:29.614Z,1.57
2019-01-04T16:07:01.318Z,1.51
2019-01-04T16:09:32.986Z,1.73
2019-01-04T16:12:04.786Z,1.65
2019-01-04T16:14:36.701Z,1.69
2019-01-04T16:17:12.062Z,1.53
2019-01-04T16:19:42.074Z,1.52
2019-01-04T16:22:13.706Z,1.58
2019-01-04T16:24:45.311Z,1.72
2019-01-04T16:27:17.020Z,1.51
2019-01-04T16:29:48.616Z,1.79
2019-01-04T16:32:20.400Z,1.50
2019-01-04T16:34:52.360Z,1.61
2019-01-04T16:37:24.035Z,1.54
2019-01-04T16:39:56.596Z,1.68
2019-01-04T16:42:28.271Z,1.56
2019-01-04T16:45:00.026Z,1.62
2019-01-04T16:47:31.793Z,1.66
2019-01-04T16:50:03.797Z,1.60
2019-01-04T16:52:35.512Z,1.71
2019-01-04T16:55:09.486Z,2.07
2019-01-04T16:57:41.200Z,1.81
2019-01-04T17:00:12.993Z,2.15
2019-01-04T17:02:47.416Z,2.11
2019-01-04T17:05:19.389Z,1.83
2019-01-04T17:07:57.117Z,1.64
2019-01-04T17:10:28.743Z,1.87
2019-01-04T17:13:00.440Z,1.89
2019-01-04T17:15:32.118Z,1.90
2019-01-04T17:18:03.698Z,2.17
2019-01-04T17:20:35.455Z,2.10
2019-01-04T17:23:07.031Z,2.00
2019-01-04T17:25:38.654Z,2.26
2019-01-04T17:28:10.332Z,1.93
2019-01-04T17:30:41.909Z,2.18
2019-01-04T17:33:13.559Z,1.88
2019-01-04T17:35:46.774Z,1.90
2019-01-04T17:38:18.483Z,1.88
2019-01-04T17:40:50.179Z,1.98
2019-01-04T17:43:22.004Z,1.83
2019-01-04T17:45:53.715Z,2.01
2019-01-04T17:48:25.522Z,2.25
2019-01-04T17:50:57.221Z,1.82
2019-01-04T17:53:28.977Z,1.79
2019-01-04T17:56:00.717Z,1.97
2019-01-04T17:58:32.453Z,2.05
2019-01-04T18:01:04.335Z,1.99
2019-01-04T18:03:36.167Z,2.02
2019-01-04T18:06:07.975Z,2.35
2019-01-04T18:08:39.970Z,2.45
2019-01-04T18:11:11.749Z,2.50
2019-01-04T18:13:43.511Z,2.48
2019-01-04T18:16:34.996Z,2.53
2019-01-04T18:19:05.429Z,2.58
2019-01-04T18:21:42.652Z,2.13
2019-01-04T18:24:14.392Z,2.43
2019-01-04T18:26:46.074Z,2.36
2019-01-04T18:29:23.616Z,2.02
2019-01-04T18:31:55.302Z,2.18
2019-01-04T18:34:26.978Z,2.22
2019-01-04T18:36:58.673Z,2.28
2019-01-04T18:39:30.394Z,2.45
2019-01-04T18:42:02.131Z,2.31
2019-01-04T18:44:34.411Z,2.50
2019-01-04T18:47:06.798Z,2.50
2019-01-04T18:49:44.806Z,2.86
2019-01-04T18:52:16.817Z,2.66
2019-01-04T18:54:52.260Z,2.72
2019-01-04T18:57:27.064Z,2.57
2019-01-04T19:00:00.161Z,2.73
2019-01-04T19:02:32.942Z,2.64
2019-01-04T19:05:05.694Z,2.77
2019-01-04T19:07:37.719Z,2.52
2019-01-04T19:10:11.085Z,2.65
2019-01-04T19:12:42.797Z,2.52
2019-01-04T19:15:14.629Z,2.55
2019-01-04T19:17:47.608Z,2.43
2019-01-04T19:20:19.313Z,2.91
2019-01-04T19:22:50.920Z,2.82
2019-01-04T19:25:22.578Z,2.53
2019-01-04T19:27:54.230Z,2.79
2019-01-04T19:30:26.022Z,2.57
2019-01-04T19:32:57.780Z,2.72
2019-01-04T19:35:29.476Z,2.84
2019-01-04T19:38:01.296Z,2.91
2019-01-04T19:40:33.271Z,2.91
2019-01-04T19:43:05.052Z,2.89
2019-01-04T19:45:36.833Z,2.96
2019-01-04T19:48:08.800Z,2.61
2019-01-04T19:50:40.469Z,2.74
2019-01-04T19:53:12.206Z,2.53
2019-01-04T19:55:43.978Z,2.70
2019-01-04T19:58:15.645Z,2.51
2019-01-04T20:00:47.522Z,2.77
2019-01-04T20:03:19.360Z,2.55
2019-01-04T20:07:34.485Z,2.53
2019-01-04T20:11:31.350Z,2.49
2019-01-04T20:15:46.648Z,2.45
2019-01-04T20:19:00.361Z,2.85
2019-01-04T20:21:50.436Z,2.58
2019-01-04T20:24:44.186Z,2.74
2019-01-04T20:27:30.323Z,2.41
2019-01-04T20:30:36.011Z,2.65
2019-01-04T20:33:25.475Z,2.36
2019-01-04T20:36:15.559Z,2.94
2019-01-04T20:39:24.344Z,2.79
2019-01-04T20:42:13.548Z,2.69
2019-01-04T20:45:02.935Z,2.71
2019-01-04T20:47:52.869Z,2.81
2019-01-04T20:50:40.840Z,2.77
2019-01-04T20:53:37.269Z,2.85
2019-01-04T20:56:26.682Z,2.88
2019-01-04T20:59:32.265Z,2.82
2019-01-04T21:02:21.451Z,2.68
2019-01-04T21:05:10.526Z,3.14
2019-01-04T21:08:01.100Z,2.67
2019-01-04T21:10:51.638Z,2.69
2019-01-04T21:13:48.259Z,2.76
2019-01-04T21:16:47.513Z,2.95
2019-01-04T21:19:44.268Z,3.02
2019-01-04T21:22:33.376Z,2.93
2019-01-04T21:25:26.827Z,2.93
2019-01-04T21:28:17.427Z,2.68
2019-01-04T21:31:07.980Z,2.76
2019-01-04T21:33:57.117Z,2.49
2019-01-04T21:36:48.178Z,2.47
2019-01-04T21:39:37.735Z,2.97
2019-01-04T21:42:26.438Z,2.90
2019-01-04T21:45:15.627Z,2.65
2019-01-04T21:48:05.103Z,3.04
2019-01-04T21:50:58.399Z,2.91
2019-01-04T21:54:00.897Z,2.65
2019-01-04T21:56:51.323Z,2.93
2019-01-04T21:59:45.297Z,2.81
2019-01-04T22:02:35.734Z,2.81
2019-01-04T22:05:25.095Z,2.94
2019-01-04T22:08:14.361Z,2.86
2019-01-04T22:11:16.857Z,3.03
2019-01-04T22:14:07.359Z,3.01
2019-01-04T22:16:57.829Z,2.79
2019-01-04T22:19:54.305Z,2.81
2019-01-04T22:22:47.681Z,2.79
2019-01-04T22:25:37.105Z,2.93
2019-01-04T22:28:31.020Z,2.63
2019-01-04T22:31:20.567Z,2.83
2019-01-04T22:34:13.413Z,2.78
2019-01-04T22:36:54.824Z,2.47
2019-01-04T22:39:38.251Z,2.52
2019-01-04T22:42:27.651Z,2.80
2019-01-04T22:45:18.547Z,2.58
2019-01-04T22:48:22.130Z,2.64
2019-01-04T22:51:18.478Z,2.32
2019-01-04T22:54:08.036Z,2.43
2019-01-04T22:57:10.364Z,2.57
2019-01-04T23:00:00.868Z,2.67
2019-01-04T23:02:51.625Z,2.35
2019-01-04T23:05:54.131Z,2.23
2019-01-04T23:08:43.332Z,2.40
2019-01-04T23:11:43.062Z,2.48
2019-01-04T23:14:33.486Z,2.34
2019-01-04T23:17:19.939Z,2.58
2019-01-04T23:20:19.473Z,2.53
2019-01-04T23:23:09.953Z,2.06
2019-01-04T23:26:09.502Z,2.52
2019-01-04T23:29:18.111Z,2.04
2019-01-04T23:32:08.531Z,2.09
2019-01-04T23:34:58.123Z,2.05
2019-01-04T23:37:48.569Z,2.26
2019-01-04T23:40:37.969Z,2.26
2019-01-04T23:43:37.247Z,2.59
2019-01-04T23:46:33.996Z,2.45
2019-01-04T23:49:30.602Z,2.41
2019-01-04T23:52:19.583Z,2.48
2019-01-04T23:55:28.132Z,2.31
2019-01-04T23:58:20.291Z,2.61
